Time;durP1;ratioP1;P1;durP2;ratioP2;P2;SDS_P1;SDS_P2;PMS_P1;PMS_P2;Temp;Humidity;BMP_temperature;BMP_pressure;BME280_temperature;BME280_humidity;BME280_pressure;Samples;Min_cycle;Max_cycle;Signal;HPM_P1;HPM_P2
2022/11/21 00:00:16;;;;;;;9.63;8.70;;;;;20.20;99329.00;;;;2062934;28;20222;-49
2022/11/21 00:01:20;;;;;;;12.47;11.10;;;;;20.20;99335.00;;;;2063039;28;20532;-51
2022/11/21 00:02:20;;;;;;;9.95;9.02;;;;;20.20;99326.00;;;;2062004;28;20210;-49
2022/11/21 00:03:21;;;;;;;11.50;10.37;;;;;20.20;99332.00;;;;2062351;28;20703;-47
2022/11/21 00:04:21;;;;;;;10.07;9.03;;;;;20.20;99287.00;;;;2062974;28;20691;-48
2022/11/21 00:05:21;;;;;;;10.10;9.10;;;;;20.20;99337.00;;;;2063274;28;20254;-51
2022/11/21 00:06:22;;;;;;;11.43;9.17;;;;;20.20;99334.00;;;;2062921;28;20630;-50
2022/11/21 00:07:22;;;;;;;10.13;9.17;;;;;20.10;99348.00;;;;2069114;28;20620;-48
2022/11/21 00:08:23;;;;;;;8.80;8.00;;;;;20.20;99340.00;;;;2063655;28;20222;-48
2022/11/21 00:09:23;;;;;;;9.53;8.63;;;;;20.20;99335.00;;;;2062046;28;20251;-47
2022/11/21 00:10:24;;;;;;;10.63;9.63;;;;;20.20;99342.00;;;;2062408;28;20289;-48
2022/11/21 00:11:24;;;;;;;9.98;9.07;;;;;20.20;99339.00;;;;2062964;28;20270;-48
2022/11/21 00:12:25;;;;;;;9.67;8.67;;;;;20.10;99328.00;;;;2062256;28;20903;-47
2022/11/21 00:13:25;;;;;;;10.20;9.20;;;;;20.10;99286.00;;;;2062339;28;20214;-52
2022/11/21 00:14:25;;;;;;;9.47;8.57;;;;;20.10;99358.00;;;;2062967;28;20206;-52
2022/11/21 00:15:26;;;;;;;9.83;8.93;;;;;20.10;99349.00;;;;2062863;28;20285;-53
2022/11/21 00:16:26;;;;;;;9.87;8.97;;;;;20.10;99352.00;;;;2062966;28;20230;-50
2022/11/21 00:17:26;;;;;;;9.73;8.87;;;;;20.10;99345.00;;;;2062789;28;20222;-50
2022/11/21 00:18:27;;;;;;;9.30;8.40;;;;;20.10;99346.00;;;;2062933;28;20222;-48
2022/11/21 00:19:27;;;;;;;9.67;8.70;;;;;20.10;99343.00;;;;2062629;28;20375;-48
2022/11/21 00:20:27;;;;;;;9.37;8.50;;;;;20.10;99343.00;;;;2063032;28;20414;-49
2022/11/21 00:21:28;;;;;;;9.17;8.37;;;;;20.10;99342.00;;;;2062795;28;20245;-50
2022/11/21 00:22:30;;;;;;;9.10;8.20;;;;;20.10;99347.00;;;;2061466;28;20255;-49
2022/11/21 00:23:30;;;;;;;8.43;7.63;;;;;20.10;99355.00;;;;2062725;28;20293;-48
2022/11/21 00:24:30;;;;;;;10.20;9.20;;;;;20.10;99347.00;;;;2062730;28;20618;-51
2022/11/21 00:25:31;;;;;;;9.17;8.27;;;;;20.10;99360.00;;;;2062970;28;20214;-50
2022/11/21 00:26:31;;;;;;;9.43;8.43;;;;;20.10;99353.00;;;;2062662;28;20215;-49
2022/11/21 00:27:31;;;;;;;8.70;7.90;;;;;20.10;99352.00;;;;2062561;28;20247;-49
2022/11/21 00:28:32;;;;;;;10.30;9.30;;;;;20.10;99354.00;;;;2061794;28;20277;-49
2022/11/21 00:29:32;;;;;;;10.10;9.10;;;;;20.00;99357.00;;;;2062098;28;20219;-48
2022/11/21 00:30:33;;;;;;;9.57;8.63;;;;;20.00;99366.00;;;;2062670;28;20241;-51
2022/11/21 00:31:33;;;;;;;9.40;8.50;;;;;20.00;99359.00;;;;2062814;28;20620;-50
2022/11/21 00:32:33;;;;;;;9.27;8.47;;;;;20.00;99369.00;;;;2054935;28;25631;-48
2022/11/21 00:33:34;;;;;;;8.97;8.07;;;;;20.00;99367.00;;;;2069998;28;20655;-49
2022/11/21 00:34:35;;;;;;;10.07;9.00;;;;;20.00;99373.00;;;;2067443;28;20901;-50
2022/11/21 00:35:35;;;;;;;8.27;7.47;;;;;20.00;99365.00;;;;2062704;28;20218;-49
2022/11/21 00:36:35;;;;;;;9.27;8.37;;;;;20.00;99360.00;;;;2062849;28;20250;-53
2022/11/21 00:37:36;;;;;;;8.73;7.93;;;;;20.00;99365.00;;;;2062614;28;20229;-50
2022/11/21 00:38:36;;;;;;;9.00;8.20;;;;;20.00;99359.00;;;;2062430;28;20218;-49
2022/11/21 00:39:36;;;;;;;8.63;7.83;;;;;20.00;99355.00;;;;2062615;28;20250;-49
2022/11/21 00:40:37;;;;;;;9.17;8.30;;;;;20.00;99370.00;;;;2062474;28;20675;-48
2022/11/21 00:41:37;;;;;;;9.07;8.27;;;;;20.00;99363.00;;;;2062513;28;20230;-48
2022/11/21 00:42:37;;;;;;;8.60;7.83;;;;;20.00;99362.00;;;;2065683;28;20245;-52
2022/11/21 00:43:38;;;;;;;9.07;8.17;;;;;20.00;99352.00;;;;2070577;28;20226;-50
2022/11/21 00:44:38;;;;;;;9.50;8.60;;;;;20.00;99359.00;;;;2065198;28;20230;-50
2022/11/21 00:45:38;;;;;;;8.87;8.00;;;;;20.00;99367.00;;;;2069041;28;20300;-53
2022/11/21 00:46:39;;;;;;;8.53;7.80;;;;;20.00;99369.00;;;;2070865;28;20214;-48
2022/11/21 00:47:39;;;;;;;9.67;8.77;;;;;19.90;99357.00;;;;2070542;28;20310;-48
2022/11/21 00:48:39;;;;;;;7.70;7.00;;;;;19.90;99362.00;;;;2070745;28;20300;-48
2022/11/21 00:49:40;;;;;;;8.20;7.50;;;;;19.90;99360.00;;;;2070705;28;20244;-52
2022/11/21 00:50:40;;;;;;;9.50;8.70;;;;;19.90;99358.00;;;;2070774;28;20222;-50
2022/11/21 00:51:40;;;;;;;9.50;8.60;;;;;19.90;99366.00;;;;2063966;28;20299;-49
2022/11/21 00:52:41;;;;;;;9.77;8.77;;;;;19.90;99357.00;;;;2077122;28;20221;-47
2022/11/21 00:53:41;;;;;;;9.30;8.30;;;;;19.90;99356.00;;;;2075119;28;20218;-49
2022/11/21 00:54:41;;;;;;;9.93;9.00;;;;;19.90;99356.00;;;;2070399;28;20214;-47
2022/11/21 00:55:41;;;;;;;9.47;8.60;;;;;19.90;99360.00;;;;2063714;28;20293;-49
2022/11/21 00:56:42;;;;;;;10.07;9.07;;;;;19.90;99359.00;;;;2062601;28;20211;-48
2022/11/21 00:57:42;;;;;;;9.47;8.57;;;;;19.90;99355.00;;;;2062238;28;20226;-51
2022/11/21 00:58:42;;;;;;;8.80;8.00;;;;;19.90;99364.00;;;;2062438;28;20679;-49
2022/11/21 00:59:43;;;;;;;9.13;8.33;;;;;19.90;99363.00;;;;2065973;28;20679;-50
2022/11/21 01:00:43;;;;;;;9.23;8.23;;;;;19.90;99357.00;;;;2070675;28;20702;-48
2022/11/21 01:01:43;;;;;;;9.20;8.30;;;;;19.90;99356.00;;;;2064947;28;20241;-49
2022/11/21 01:02:44;;;;;;;8.93;8.10;;;;;19.90;99362.00;;;;2065177;28;20269;-48
2022/11/21 01:03:45;;;;;;;9.43;8.53;;;;;19.90;99368.00;;;;2062702;28;20303;-51
2022/11/21 01:04:45;;;;;;;9.80;8.90;;;;;19.90;99363.00;;;;2062517;28;20785;-52
2022/11/21 01:05:45;;;;;;;9.70;8.73;;;;;19.90;99368.00;;;;2062660;28;20488;-53
2022/11/21 01:06:46;;;;;;;9.07;8.23;;;;;19.90;99363.00;;;;2062601;28;20292;-49
2022/11/21 01:07:47;;;;;;;8.90;8.10;;;;;19.90;99366.00;;;;2068833;28;20228;-49
2022/11/21 01:08:47;;;;;;;9.57;8.68;;;;;19.90;99372.00;;;;2070442;28;20265;-49
2022/11/21 01:09:48;;;;;;;9.60;8.60;;;;;19.80;99365.00;;;;2069921;28;20264;-50
2022/11/21 01:10:48;;;;;;;9.80;8.80;;;;;19.80;99372.00;;;;2069736;28;20209;-51
2022/11/21 01:11:48;;;;;;;9.87;8.87;;;;;19.80;99371.00;;;;2068890;28;20242;-50
2022/11/21 01:12:49;;;;;;;9.27;8.37;;;;;19.90;99376.00;;;;2068395;28;20210;-51
2022/11/21 01:13:51;;;;;;;9.33;8.43;;;;;19.90;99368.00;;;;2070574;28;20214;-50
2022/11/21 01:14:52;;;;;;;9.80;8.80;;;;;19.80;99363.00;;;;2058557;28;20210;-51
2022/11/21 01:15:52;;;;;;;9.30;8.47;;;;;19.80;99363.00;;;;2062676;28;20234;-50
2022/11/21 01:16:52;;;;;;;10.40;9.40;;;;;19.80;99374.00;;;;2062415;28;20218;-49
2022/11/21 01:17:53;;;;;;;9.77;8.77;;;;;19.80;99366.00;;;;2060437;28;20238;-51
2022/11/21 01:18:53;;;;;;;9.50;8.60;;;;;19.80;99370.00;;;;2061633;28;20218;-51
2022/11/21 01:19:53;;;;;;;9.70;8.70;;;;;19.80;99367.00;;;;2062404;28;20211;-50
2022/11/21 01:20:54;;;;;;;10.07;9.07;;;;;19.80;99366.00;;;;2062406;28;20234;-51
2022/11/21 01:21:54;;;;;;;10.30;9.30;;;;;19.80;99365.00;;;;2059911;28;20254;-50
2022/11/21 01:22:54;;;;;;;9.43;8.50;;;;;19.80;99372.00;;;;2061623;28;20215;-50
2022/11/21 01:23:55;;;;;;;10.23;9.23;;;;;19.80;99369.00;;;;2062156;28;20217;-51
2022/11/21 01:24:55;;;;;;;10.43;9.43;;;;;19.80;99366.00;;;;2062371;28;20596;-51
2022/11/21 01:26:07;;;;;;;10.77;9.67;;;;;19.80;99370.00;;;;2062154;28;20222;-50
2022/11/21 01:27:07;;;;;;;10.10;9.10;;;;;19.80;99371.00;;;;2062368;28;20223;-51
2022/11/21 01:28:07;;;;;;;10.00;9.00;;;;;19.80;99366.00;;;;2061811;28;20716;-51
2022/11/21 01:29:07;;;;;;;10.10;9.00;;;;;19.80;99365.00;;;;2062265;28;20215;-50
2022/11/21 01:30:09;;;;;;;10.23;9.23;;;;;19.80;99368.00;;;;2062418;28;20215;-51
2022/11/21 01:31:28;;;;;;;10.18;9.18;;;;;19.80;99369.00;;;;2062530;28;20226;-51
2022/11/21 01:32:28;;;;;;;9.43;8.52;;;;;19.80;99377.00;;;;2061342;28;20219;-50
2022/11/21 01:33:28;;;;;;;9.70;8.70;;;;;19.80;99378.00;;;;2062401;28;20241;-50
2022/11/21 01:34:29;;;;;;;10.23;9.30;;;;;19.80;99378.00;;;;2069830;28;20206;-50
2022/11/21 01:35:29;;;;;;;10.10;9.10;;;;;19.80;99379.00;;;;2070630;28;20229;-50
2022/11/21 01:36:31;;;;;;;10.00;9.10;;;;;19.70;99379.00;;;;2070256;28;20286;-50
2022/11/21 01:37:31;;;;;;;9.65;8.80;;;;;19.70;99378.00;;;;2070415;28;20231;-51
2022/11/21 01:38:32;;;;;;;10.20;9.20;;;;;19.70;99377.00;;;;2069656;28;20575;-50
2022/11/21 01:39:32;;;;;;;10.13;9.03;;;;;19.70;99379.00;;;;2070282;28;20845;-51
2022/11/21 01:40:39;;;;;;;9.60;8.70;;;;;19.70;99377.00;;;;2070552;28;20446;-50
2022/11/21 01:41:41;;;;;;;10.70;9.55;;;;;19.70;99393.00;;;;2070288;28;20218;-50
2022/11/21 01:42:59;;;;;;;9.75;8.77;;;;;19.70;99379.00;;;;2069725;28;20643;-51
2022/11/21 01:44:00;;;;;;;10.00;8.90;;;;;19.70;99377.00;;;;2061121;28;20742;-50
2022/11/21 01:45:00;;;;;;;10.80;9.80;;;;;19.70;99377.00;;;;2062168;28;20215;-51
2022/11/21 01:46:06;;;;;;;10.63;9.63;;;;;19.70;99378.00;;;;2070669;28;20210;-51
2022/11/21 01:47:07;;;;;;;9.93;9.02;;;;;19.70;99386.00;;;;2070201;28;20210;-51
2022/11/21 01:48:07;;;;;;;10.87;9.80;;;;;19.70;99380.00;;;;2068403;28;20698;-48
2022/11/21 01:49:18;;;;;;;11.00;9.90;;;;;19.70;99370.00;;;;2070454;28;21023;-49
2022/11/21 01:50:19;;;;;;;10.63;9.35;;;;;19.70;99381.00;;;;2064413;28;20717;-51
2022/11/21 01:51:31;;;;;;;11.73;10.43;;;;;19.70;99382.00;;;;2060759;28;20301;-52
2022/11/21 01:52:31;;;;;;;10.55;9.55;;;;;19.70;99378.00;;;;2061226;28;20456;-51
2022/11/21 01:53:32;;;;;;;9.43;8.53;;;;;19.70;99376.00;;;;2062464;28;20261;-50
2022/11/21 01:55:00;;;;;;;10.40;9.32;;;;;19.70;99381.00;;;;2061352;28;20406;-51
2022/11/21 01:56:01;;;;;;;11.50;10.30;;;;;19.70;99374.00;;;;2055238;28;20223;-51
2022/11/21 01:57:13;;;;;;;10.43;9.33;;;;;19.70;99373.00;;;;2061415;28;20630;-51
2022/11/21 01:58:13;;;;;;;10.43;9.43;;;;;19.60;99374.00;;;;2060709;28;20226;-51
2022/11/21 01:59:17;;;;;;;11.47;10.40;;;;;19.60;99372.00;;;;2061885;28;20561;-51
2022/11/21 02:00:24;;;;;;;11.70;10.20;;;;;19.60;99372.00;;;;2061465;28;20226;-50
2022/11/21 02:01:24;;;;;;;9.48;8.57;;;;;19.60;99372.00;;;;2061567;28;20334;-50
2022/11/21 02:02:28;;;;;;;11.70;10.50;;;;;19.60;99371.00;;;;2052824;28;20740;-51
2022/11/21 02:03:30;;;;;;;11.15;10.05;;;;;19.70;99373.00;;;;2045870;28;20220;-51
2022/11/21 02:04:31;;;;;;;10.27;9.27;;;;;19.70;99379.00;;;;2068368;28;20333;-51
2022/11/21 02:05:32;;;;;;;10.70;9.70;;;;;19.70;99377.00;;;;2061648;28;20445;-51
2022/11/21 02:06:32;;;;;;;11.67;10.33;;;;;19.70;99362.00;;;;2058115;28;20202;-50
2022/11/21 02:07:34;;;;;;;10.07;9.10;;;;;19.60;99380.00;;;;2055398;28;20219;-51
2022/11/21 02:08:35;;;;;;;9.63;8.52;;;;;19.60;99376.00;;;;2060265;28;20214;-49
2022/11/21 02:09:36;;;;;;;12.53;10.83;;;;;19.60;99381.00;;;;2060796;28;20793;-50
2022/11/21 02:10:37;;;;;;;10.75;9.75;;;;;19.60;99378.00;;;;2052970;28;20408;-50
2022/11/21 02:11:40;;;;;;;10.13;9.13;;;;;19.60;99380.00;;;;2052604;28;20712;-51
2022/11/21 02:12:48;;;;;;;10.85;9.75;;;;;19.60;99384.00;;;;2050359;28;20238;-50
2022/11/21 02:13:48;;;;;;;11.40;10.30;;;;;19.60;99375.00;;;;2052537;28;20208;-50
2022/11/21 02:14:48;;;;;;;11.07;9.97;;;;;19.60;99382.00;;;;2060716;28;20772;-51
2022/11/21 02:15:49;;;;;;;11.10;9.97;;;;;19.70;99378.00;;;;2061632;28;20576;-50
2022/11/21 02:16:49;;;;;;;9.23;8.30;;;;;19.60;99378.00;;;;2065919;28;20222;-50
2022/11/21 02:17:50;;;;;;;11.23;10.13;;;;;19.60;99374.00;;;;2067155;28;20229;-51
2022/11/21 02:18:50;;;;;;;11.73;10.53;;;;;19.60;99377.00;;;;2061237;28;20250;-51
2022/11/21 02:20:07;;;;;;;11.10;10.00;;;;;19.60;99377.00;;;;2065158;28;20225;-50
2022/11/21 02:21:16;;;;;;;10.40;9.40;;;;;19.60;99378.00;;;;2059548;28;20766;-51
2022/11/21 02:22:41;;;;;;;11.10;9.95;;;;;19.60;99374.00;;;;2051801;28;20692;-50
2022/11/21 02:24:06;;;;;;;10.60;9.50;;;;;19.60;99380.00;;;;2066505;28;20313;-51
2022/11/21 02:25:13;;;;;;;11.23;10.13;;;;;19.60;99380.00;;;;2071266;28;20312;-50
2022/11/21 02:26:13;;;;;;;13.15;10.10;;;;;19.60;99379.00;;;;2067859;28;20215;-49
2022/11/21 02:27:13;;;;;;;10.60;9.60;;;;;19.60;99379.00;;;;2071835;28;20252;-50
2022/11/21 02:28:14;;;;;;;10.30;9.30;;;;;19.60;99378.00;;;;2070667;28;20291;-51
2022/11/21 02:29:15;;;;;;;10.13;9.17;;;;;19.50;99381.00;;;;2063168;28;20207;-50
2022/11/21 02:30:15;;;;;;;10.70;9.60;;;;;19.50;99380.00;;;;2054730;28;20237;-51
2022/11/21 02:31:15;;;;;;;10.00;9.00;;;;;19.50;99375.00;;;;2063159;28;20215;-49
2022/11/21 02:32:23;;;;;;;10.50;9.50;;;;;19.50;99381.00;;;;2078549;28;20208;-49
2022/11/21 02:33:23;;;;;;;10.35;9.20;;;;;19.50;99374.00;;;;2071614;28;20214;-51
2022/11/21 02:34:23;;;;;;;8.87;7.97;;;;;19.60;99377.00;;;;2071523;28;20527;-50
2022/11/21 02:35:24;;;;;;;9.27;8.37;;;;;19.60;99373.00;;;;2071819;28;20671;-50
2022/11/21 02:36:42;;;;;;;10.50;9.37;;;;;19.60;99374.00;;;;2071781;28;20764;-50
2022/11/21 02:37:44;;;;;;;10.80;9.80;;;;;19.50;99372.00;;;;2071490;28;20211;-50
2022/11/21 02:38:44;;;;;;;9.95;8.95;;;;;19.60;99374.00;;;;2070735;28;20202;-50
2022/11/21 02:39:44;;;;;;;10.13;9.20;;;;;19.60;99379.00;;;;2062851;28;20207;-49
2022/11/21 02:40:53;;;;;;;10.47;9.37;;;;;19.50;99376.00;;;;2062551;28;20203;-51
2022/11/21 02:42:01;;;;;;;11.10;10.00;;;;;19.50;99374.00;;;;2055161;28;20235;-51
2022/11/21 02:43:18;;;;;;;10.55;9.10;;;;;19.50;99381.00;;;;2056929;28;20655;-51
2022/11/21 02:44:23;;;;;;;9.27;8.38;;;;;19.50;99378.00;;;;2055271;28;20242;-51
2022/11/21 02:45:32;;;;;;;9.98;8.98;;;;;19.50;99392.00;;;;2054002;28;20211;-51
2022/11/21 02:46:33;;;;;;;9.38;8.45;;;;;19.50;99389.00;;;;2060935;28;20298;-50
2022/11/21 02:47:34;;;;;;;9.98;9.07;;;;;19.50;99393.00;;;;2062878;28;20219;-51
2022/11/21 02:48:36;;;;;;;9.70;8.80;;;;;19.50;99394.00;;;;2054289;28;20211;-51
2022/11/21 02:49:53;;;;;;;9.68;8.73;;;;;19.50;99392.00;;;;2062622;28;20478;-50
2022/11/21 02:50:53;;;;;;;10.15;9.18;;;;;19.50;99389.00;;;;2062777;28;20328;-51
2022/11/21 02:51:53;;;;;;;8.83;7.93;;;;;19.50;99392.00;;;;2062219;28;20748;-50
2022/11/21 02:52:54;;;;;;;9.43;8.53;;;;;19.50;99391.00;;;;2071480;28;20523;-51
2022/11/21 02:53:55;;;;;;;9.40;8.45;;;;;19.50;99392.00;;;;2070851;28;20286;-49
2022/11/21 02:54:55;;;;;;;8.90;8.10;;;;;19.50;99391.00;;;;2069825;28;20245;-49
2022/11/21 02:55:55;;;;;;;9.93;9.03;;;;;19.50;99395.00;;;;2062459;28;20286;-49
2022/11/21 02:56:56;;;;;;;9.30;8.40;;;;;19.50;99401.00;;;;2063567;28;20269;-50
2022/11/21 02:57:56;;;;;;;10.50;9.50;;;;;19.50;99398.00;;;;2061719;28;20227;-49
2022/11/21 02:58:57;;;;;;;10.67;9.57;;;;;19.50;99396.00;;;;2063645;28;20222;-49
2022/11/21 02:59:57;;;;;;;8.93;8.13;;;;;19.50;99395.00;;;;2062823;28;20207;-49
2022/11/21 03:00:57;;;;;;;9.57;8.60;;;;;19.50;99396.00;;;;2063438;28;20241;-50
2022/11/21 03:01:59;;;;;;;9.70;8.70;;;;;19.50;99398.00;;;;2062523;28;20223;-51
2022/11/21 03:03:00;;;;;;;8.98;8.18;;;;;19.50;99392.00;;;;2063082;28;20211;-51
2022/11/21 03:04:00;;;;;;;9.70;8.80;;;;;19.50;99394.00;;;;2067079;28;20215;-51
2022/11/21 03:05:01;;;;;;;9.40;8.47;;;;;19.50;99382.00;;;;2063572;28;20229;-51
2022/11/21 03:06:01;;;;;;;10.47;9.47;;;;;19.50;99393.00;;;;2062623;28;20215;-51
2022/11/21 03:07:01;;;;;;;10.20;8.40;;;;;19.50;99392.00;;;;2054609;28;20896;-49
2022/11/21 03:08:02;;;;;;;9.40;8.50;;;;;19.40;99387.00;;;;2062637;28;20639;-50
2022/11/21 03:09:02;;;;;;;11.23;9.17;;;;;19.50;99386.00;;;;2067222;28;20709;-52
2022/11/21 03:10:03;;;;;;;10.67;9.67;;;;;19.40;99384.00;;;;2070552;28;20218;-51
2022/11/21 03:11:04;;;;;;;10.17;9.20;;;;;19.40;99377.00;;;;2063184;28;20236;-51
2022/11/21 03:12:06;;;;;;;9.73;8.83;;;;;19.40;99377.00;;;;2062328;28;20226;-51
2022/11/21 03:13:06;;;;;;;10.10;9.13;;;;;19.40;99392.00;;;;2063574;28;20215;-48
2022/11/21 03:14:07;;;;;;;10.07;9.17;;;;;19.50;99385.00;;;;2063505;28;20715;-51
2022/11/21 03:15:09;;;;;;;10.00;9.10;;;;;19.40;99401.00;;;;2063769;28;20754;-49
2022/11/21 03:16:09;;;;;;;9.93;9.02;;;;;19.40;99388.00;;;;2062811;28;20683;-52
2022/11/21 03:17:10;;;;;;;9.57;8.67;;;;;19.40;99324.00;;;;2063089;28;20234;-50
2022/11/21 03:18:10;;;;;;;10.40;9.40;;;;;19.40;99389.00;;;;2063391;28;20970;-49
2022/11/21 03:19:10;;;;;;;9.90;9.00;;;;;19.40;99392.00;;;;2063342;28;20706;-50
2022/11/21 03:20:11;;;;;;;9.63;8.70;;;;;19.40;99394.00;;;;2063274;28;20226;-49
2022/11/21 03:21:11;;;;;;;10.53;9.53;;;;;19.40;99399.00;;;;2063304;28;20223;-49
2022/11/21 03:22:12;;;;;;;10.03;9.13;;;;;19.40;99396.00;;;;2062196;28;20222;-49
2022/11/21 03:23:12;;;;;;;10.43;9.43;;;;;19.40;99390.00;;;;2062938;28;20251;-48
2022/11/21 03:24:12;;;;;;;10.23;9.33;;;;;19.20;99346.00;;;;2063417;28;20238;-49
2022/11/21 03:25:13;;;;;;;9.83;8.93;;;;;19.40;99390.00;;;;2062949;28;20640;-49
2022/11/21 03:26:13;;;;;;;10.70;9.60;;;;;19.40;99393.00;;;;2063272;28;20833;-49
2022/11/21 03:27:13;;;;;;;11.13;10.03;;;;;19.40;99385.00;;;;2063151;28;20219;-49
2022/11/21 03:28:14;;;;;;;11.40;10.30;;;;;19.40;99388.00;;;;2063461;28;20229;-49
2022/11/21 03:29:14;;;;;;;10.57;9.47;;;;;19.40;99390.00;;;;2062985;28;20233;-48
2022/11/21 03:30:15;;;;;;;12.50;11.30;;;;;19.00;99391.00;;;;2063239;28;20215;-48
2022/11/21 03:31:15;;;;;;;10.20;9.20;;;;;19.40;99395.00;;;;2063313;28;20250;-49
2022/11/21 03:32:16;;;;;;;9.90;9.00;;;;;19.40;99387.00;;;;2062383;28;21307;-49
2022/11/21 03:33:16;;;;;;;10.43;9.40;;;;;19.40;99372.00;;;;2062339;28;20229;-49
2022/11/21 03:34:16;;;;;;;10.87;9.83;;;;;19.40;99387.00;;;;2063292;28;20231;-49
2022/11/21 03:35:17;;;;;;;10.50;9.50;;;;;19.40;99381.00;;;;2064325;28;20223;-49
2022/11/21 03:36:17;;;;;;;10.60;9.43;;;;;19.40;99382.00;;;;2070679;28;20260;-49
2022/11/21 03:37:17;;;;;;;10.53;9.53;;;;;19.30;99386.00;;;;2071093;28;20222;-49
2022/11/21 03:38:18;;;;;;;11.00;9.90;;;;;19.30;99383.00;;;;2070348;28;20218;-49
2022/11/21 03:39:18;;;;;;;12.00;10.80;;;;;19.40;99385.00;;;;2071478;28;20210;-49
2022/11/21 03:40:18;;;;;;;11.23;10.13;;;;;19.40;99401.00;;;;2068685;28;20698;-49
2022/11/21 03:41:31;;;;;;;10.73;9.73;;;;;19.30;99385.00;;;;2066697;28;20701;-48
2022/11/21 03:42:31;;;;;;;12.98;10.05;;;;;19.30;99383.00;;;;2070532;28;20206;-49
2022/11/21 03:43:31;;;;;;;11.50;10.40;;;;;19.30;99382.00;;;;2067918;28;20222;-48
2022/11/21 03:44:32;;;;;;;11.23;10.13;;;;;19.30;99381.00;;;;2062319;28;20293;-49
2022/11/21 03:45:32;;;;;;;11.03;9.93;;;;;19.30;99384.00;;;;2066227;28;20206;-49
2022/11/21 03:46:36;;;;;;;10.70;9.70;;;;;19.30;99381.00;;;;2059979;28;20217;-49
2022/11/21 03:47:37;;;;;;;10.82;9.77;;;;;19.30;99384.00;;;;2070439;28;20281;-49
2022/11/21 03:48:38;;;;;;;11.37;10.27;;;;;19.30;99386.00;;;;2063586;28;20822;-49
2022/11/21 03:49:38;;;;;;;11.73;10.52;;;;;19.30;99379.00;;;;2063072;28;20218;-49
2022/11/21 03:50:41;;;;;;;11.07;9.97;;;;;19.30;99377.00;;;;2063136;28;20215;-48
2022/11/21 03:51:42;;;;;;;10.10;8.98;;;;;19.30;99390.00;;;;2062434;28;20265;-49
2022/11/21 03:52:43;;;;;;;10.50;9.50;;;;;19.30;99388.00;;;;2062268;28;20567;-49
2022/11/21 03:53:43;;;;;;;11.33;10.23;;;;;19.30;99389.00;;;;2063116;28;20214;-49
2022/11/21 03:54:43;;;;;;;11.43;10.33;;;;;19.30;99382.00;;;;2069164;28;20223;-49
2022/11/21 03:55:44;;;;;;;10.60;9.60;;;;;19.30;99391.00;;;;2067703;28;20242;-48
2022/11/21 03:56:44;;;;;;;12.33;11.13;;;;;19.30;99393.00;;;;2056230;28;20218;-49
2022/11/21 03:57:44;;;;;;;12.00;10.80;;;;;19.30;99387.00;;;;2070917;28;20219;-49
2022/11/21 03:58:44;;;;;;;12.10;10.63;;;;;19.30;99390.00;;;;2071167;28;20307;-49
2022/11/21 03:59:45;;;;;;;11.73;10.60;;;;;19.30;99394.00;;;;2070585;28;22590;-48
2022/11/21 04:00:46;;;;;;;11.90;10.67;;;;;19.30;99387.00;;;;2070744;28;20221;-56
2022/11/21 04:01:46;;;;;;;10.50;9.50;;;;;19.30;99391.00;;;;2070838;28;20757;-48
2022/11/21 04:02:47;;;;;;;10.90;9.90;;;;;19.30;99379.00;;;;2070419;28;20214;-49
2022/11/21 04:03:47;;;;;;;11.20;10.10;;;;;19.30;99394.00;;;;2070179;28;20273;-50
2022/11/21 04:04:47;;;;;;;11.20;10.10;;;;;19.30;99394.00;;;;2070190;28;20691;-51
2022/11/21 04:05:48;;;;;;;11.23;10.13;;;;;19.30;99396.00;;;;2071020;28;20213;-49
2022/11/21 04:06:48;;;;;;;11.73;10.60;;;;;19.30;99390.00;;;;2070777;28;20218;-51
2022/11/21 04:07:48;;;;;;;11.17;10.00;;;;;19.30;99389.00;;;;2071124;28;20228;-51
2022/11/21 04:08:49;;;;;;;12.03;10.83;;;;;19.30;99387.00;;;;2070757;28;20214;-51
2022/11/21 04:09:49;;;;;;;11.00;9.90;;;;;19.30;99390.00;;;;2066387;28;20211;-50
2022/11/21 04:10:50;;;;;;;12.20;11.00;;;;;19.30;99383.00;;;;2062722;28;20207;-50
2022/11/21 04:11:50;;;;;;;11.20;10.13;;;;;19.30;99382.00;;;;2061157;28;20218;-50
2022/11/21 04:12:51;;;;;;;12.97;11.67;;;;;19.30;99387.00;;;;2062297;28;20241;-51
2022/11/21 04:13:51;;;;;;;12.07;10.90;;;;;19.30;99386.00;;;;2062589;28;20212;-50
2022/11/21 04:14:51;;;;;;;11.73;10.33;;;;;19.30;99378.00;;;;2064692;28;20410;-50
2022/11/21 04:15:52;;;;;;;11.60;10.50;;;;;19.30;99382.00;;;;2068365;28;20211;-50
2022/11/21 04:16:52;;;;;;;11.27;10.10;;;;;19.30;99384.00;;;;2062585;28;20290;-50
2022/11/21 04:17:52;;;;;;;11.40;10.27;;;;;19.30;99385.00;;;;2067207;28;20249;-51
2022/11/21 04:18:53;;;;;;;11.10;10.00;;;;;19.30;99376.00;;;;2065792;28;20215;-51
2022/11/21 04:19:53;;;;;;;11.47;10.20;;;;;19.30;99377.00;;;;2064984;28;20230;-51
2022/11/21 04:20:57;;;;;;;11.87;10.67;;;;;19.30;99375.00;;;;2070486;28;20218;-49
2022/11/21 04:21:58;;;;;;;10.70;9.65;;;;;19.30;99372.00;;;;2065560;28;20207;-51
2022/11/21 04:22:58;;;;;;;10.70;9.60;;;;;19.20;99394.00;;;;2062813;28;20209;-49
2022/11/21 04:23:58;;;;;;;10.30;9.30;;;;;19.20;99385.00;;;;2062977;28;20223;-50
2022/11/21 04:24:58;;;;;;;11.33;10.23;;;;;19.30;99385.00;;;;2063127;28;20219;-51
2022/11/21 04:25:59;;;;;;;10.27;9.37;;;;;19.30;99391.00;;;;2066380;28;20214;-49
2022/11/21 04:26:59;;;;;;;12.10;10.90;;;;;19.20;99386.00;;;;2061445;28;20273;-51
2022/11/21 04:28:00;;;;;;;10.97;9.87;;;;;19.30;99390.00;;;;2062137;28;20218;-52
2022/11/21 04:29:01;;;;;;;10.50;9.50;;;;;19.20;99397.00;;;;2062248;28;20211;-50
2022/11/21 04:30:01;;;;;;;11.10;10.00;;;;;19.30;99398.00;;;;2066713;28;20461;-51
2022/11/21 04:31:05;;;;;;;10.03;9.03;;;;;19.20;99395.00;;;;2070810;28;20296;-51
2022/11/21 04:32:06;;;;;;;10.63;9.63;;;;;19.20;99393.00;;;;2069612;28;20210;-51
2022/11/21 04:33:06;;;;;;;11.70;10.50;;;;;19.20;99404.00;;;;2069750;28;20210;-51
2022/11/21 04:34:06;;;;;;;11.63;10.53;;;;;19.20;99400.00;;;;2070843;28;20250;-49
2022/11/21 04:35:07;;;;;;;12.30;11.00;;;;;19.20;99391.00;;;;2070962;28;20714;-50
2022/11/21 04:36:07;;;;;;;11.87;10.67;;;;;19.20;99385.00;;;;2064601;28;20702;-51
2022/11/21 04:37:08;;;;;;;12.10;10.90;;;;;19.20;99380.00;;;;2062853;28;20215;-49
2022/11/21 04:38:08;;;;;;;12.60;11.40;;;;;19.20;99375.00;;;;2061774;28;20273;-50
2022/11/21 04:39:08;;;;;;;11.20;10.17;;;;;19.20;99384.00;;;;2062869;28;20799;-51
2022/11/21 04:40:09;;;;;;;11.10;10.10;;;;;19.20;99385.00;;;;2062895;28;20250;-50
2022/11/21 04:41:10;;;;;;;10.98;9.88;;;;;19.20;99379.00;;;;2062476;28;20261;-50
2022/11/21 04:42:10;;;;;;;12.07;10.87;;;;;19.20;99383.00;;;;2060964;28;20266;-52
2022/11/21 04:43:10;;;;;;;12.30;11.10;;;;;19.20;99375.00;;;;2062067;28;20312;-51
2022/11/21 04:44:11;;;;;;;11.63;10.50;;;;;19.20;99388.00;;;;2062378;28;20634;-51
2022/11/21 04:45:12;;;;;;;10.30;9.30;;;;;19.20;99385.00;;;;2062555;28;20264;-49
2022/11/21 04:46:12;;;;;;;11.03;9.83;;;;;19.20;99387.00;;;;2062824;28;20223;-51
2022/11/21 04:47:12;;;;;;;10.73;9.73;;;;;19.20;99384.00;;;;2062778;28;21017;-50
2022/11/21 04:48:13;;;;;;;10.50;9.50;;;;;19.20;99383.00;;;;2062551;28;20217;-51
2022/11/21 04:49:13;;;;;;;10.90;9.80;;;;;19.20;99380.00;;;;2062945;28;20210;-50
2022/11/21 04:50:14;;;;;;;10.90;9.80;;;;;19.20;99391.00;;;;2069651;28;20225;-49
2022/11/21 04:51:14;;;;;;;11.27;10.17;;;;;19.20;99394.00;;;;2062443;28;20269;-50
2022/11/21 04:52:14;;;;;;;11.30;10.20;;;;;19.20;99384.00;;;;2061826;28;20392;-49
2022/11/21 04:53:15;;;;;;;10.63;9.67;;;;;19.20;99388.00;;;;2065063;28;20280;-50
2022/11/21 04:54:15;;;;;;;11.07;9.97;;;;;19.20;99394.00;;;;2070727;28;20214;-51
2022/11/21 04:55:15;;;;;;;10.23;9.23;;;;;19.20;99386.00;;;;2065284;28;20262;-50
2022/11/21 04:56:16;;;;;;;12.27;9.33;;;;;19.20;99390.00;;;;2062657;28;20722;-50
2022/11/21 04:57:16;;;;;;;10.50;9.40;;;;;19.10;99392.00;;;;2062655;28;20644;-51
2022/11/21 04:58:16;;;;;;;9.60;8.70;;;;;19.10;99392.00;;;;2062196;28;20233;-51
2022/11/21 04:59:17;;;;;;;10.57;9.57;;;;;19.10;99383.00;;;;2061665;28;20222;-50
2022/11/21 05:00:17;;;;;;;10.53;9.30;;;;;19.20;99388.00;;;;2062637;28;20219;-51
2022/11/21 05:01:17;;;;;;;10.83;9.73;;;;;19.20;99382.00;;;;2062596;28;20218;-51
2022/11/21 05:02:18;;;;;;;10.53;9.53;;;;;19.20;99389.00;;;;2061554;28;20222;-48
2022/11/21 05:03:18;;;;;;;10.13;9.03;;;;;19.20;99385.00;;;;2062575;28;20222;-49
2022/11/21 05:04:18;;;;;;;10.70;9.57;;;;;19.20;99377.00;;;;2062334;28;20214;-50